Gardiner, Iowa
Current Conditions -  °F | °C
As of 2:55 PM on Sunday 21 Dec 2014 (Local Time) from KPRO Reporting Station
Overcast Overcast  
Wind Chill: 32°   Ceiling: 1300
Heat Index: 41°   Visibility: 10mi
Dew Point: 37°   Wind: 17mph
Humidity: 87%   Direction: 180°S
Pressure: 29.79"   Gusts: NA
Location:  41.8185°N, 93.9933°W
Report Text: KPRO 212055Z AUTO 18015KT 10SM OVC013 05/03 A2979 RMK AO2 T00480028
Loading
Personal Weather Stations






























Interactive Weather Map New forecast layout! Learn more

10-Day Weather Forecast

Advertisements
Track Severe Weather on mobile